sensor_id;sensor_type;location;lat;lon;timestamp;pressure;altitude;pressure_sealevel;temperature;humidity
66486;BME280;53303;47.476;8.084;2023-02-15T00:01:39;96473.91;;;19.17;32.41
66486;BME280;53303;47.476;8.084;2023-02-15T00:04:11;96470.41;;;19.17;32.42
66486;BME280;53303;47.476;8.084;2023-02-15T00:06:40;96466.09;;;19.16;32.48
66486;BME280;53303;47.476;8.084;2023-02-15T00:09:05;96446.91;;;18.97;32.31
66486;BME280;53303;47.476;8.084;2023-02-15T00:11:33;96458.44;;;19.11;32.30
66486;BME280;53303;47.476;8.084;2023-02-15T00:14:19;96465.53;;;19.12;32.42
66486;BME280;53303;47.476;8.084;2023-02-15T00:16:45;96461.81;;;19.15;32.43
66486;BME280;53303;47.476;8.084;2023-02-15T00:19:15;96462.56;;;19.15;32.42
66486;BME280;53303;47.476;8.084;2023-02-15T00:21:45;96442.22;;;19.03;32.32
66486;BME280;53303;47.476;8.084;2023-02-15T00:24:16;96461.34;;;19.16;32.33
66486;BME280;53303;47.476;8.084;2023-02-15T00:26:45;96449.19;;;19.14;32.23
66486;BME280;53303;47.476;8.084;2023-02-15T00:29:12;96462.09;;;19.17;32.38
66486;BME280;53303;47.476;8.084;2023-02-15T00:31:37;96462.84;;;19.17;32.46
66486;BME280;53303;47.476;8.084;2023-02-15T00:34:04;96455.34;;;19.18;32.29
66486;BME280;53303;47.476;8.084;2023-02-15T00:36:32;96441.28;;;19.07;32.59
66486;BME280;53303;47.476;8.084;2023-02-15T00:38:58;96449.50;;;19.16;32.30
66486;BME280;53303;47.476;8.084;2023-02-15T00:41:24;96463.63;;;19.18;32.42
66486;BME280;53303;47.476;8.084;2023-02-15T00:43:53;96456.09;;;19.18;32.10
66486;BME280;53303;47.476;8.084;2023-02-15T00:46:19;96446.16;;;19.12;32.39
66486;BME280;53303;47.476;8.084;2023-02-15T00:48:44;96443.09;;;19.10;32.18
66486;BME280;53303;47.476;8.084;2023-02-15T00:51:12;96446.16;;;19.12;32.44
66486;BME280;53303;47.476;8.084;2023-02-15T00:53:37;96432.41;;;19.02;32.43
66486;BME280;53303;47.476;8.084;2023-02-15T00:56:05;96424.03;;;18.97;32.49
66486;BME280;53303;47.476;8.084;2023-02-15T00:58:31;96432.78;;;19.10;32.30
66486;BME280;53303;47.476;8.084;2023-02-15T01:01:06;96444.75;;;19.16;32.16
66486;BME280;53303;47.476;8.084;2023-02-15T01:03:32;96422.41;;;19.05;32.27
66486;BME280;53303;47.476;8.084;2023-02-15T01:05:58;96442.53;;;19.20;32.08
66486;BME280;53303;47.476;8.084;2023-02-15T01:08:27;96434.91;;;19.15;32.33
66486;BME280;53303;47.476;8.084;2023-02-15T01:11:02;96441.97;;;19.16;32.26
66486;BME280;53303;47.476;8.084;2023-02-15T01:13:27;96436.13;;;19.14;32.35
66486;BME280;53303;47.476;8.084;2023-02-15T01:15:54;96446.06;;;19.21;32.51
66486;BME280;53303;47.476;8.084;2023-02-15T01:18:22;96435.38;;;19.14;32.22
66486;BME280;53303;47.476;8.084;2023-02-15T01:20:49;96430.31;;;19.12;32.18
66486;BME280;53303;47.476;8.084;2023-02-15T01:23:15;96437.19;;;19.17;32.14
66486;BME280;53303;47.476;8.084;2023-02-15T01:25:43;96437.00;;;19.20;32.22
66486;BME280;53303;47.476;8.084;2023-02-15T01:28:09;96433.34;;;19.14;32.12
66486;BME280;53303;47.476;8.084;2023-02-15T01:30:37;96417.94;;;19.08;32.12
66486;BME280;53303;47.476;8.084;2023-02-15T01:33:05;96439.00;;;19.20;32.22
66486;BME280;53303;47.476;8.084;2023-02-15T01:35:33;96430.13;;;19.16;32.04
66486;BME280;53303;47.476;8.084;2023-02-15T01:38:01;96423.34;;;19.17;32.23
66486;BME280;53303;47.476;8.084;2023-02-15T01:40:28;96419.84;;;19.16;32.13
66486;BME280;53303;47.476;8.084;2023-02-15T01:42:57;96430.25;;;19.21;32.20
66486;BME280;53303;47.476;8.084;2023-02-15T01:45:31;96413.91;;;19.09;32.21
66486;BME280;53303;47.476;8.084;2023-02-15T01:48:02;96437.75;;;19.21;32.29
66486;BME280;53303;47.476;8.084;2023-02-15T01:50:37;96424.03;;;19.12;32.12
66486;BME280;53303;47.476;8.084;2023-02-15T01:53:11;96430.25;;;19.21;32.19
66486;BME280;53303;47.476;8.084;2023-02-15T01:55:44;96414.38;;;19.07;32.15
66486;BME280;53303;47.476;8.084;2023-02-15T01:58:16;96400.47;;;19.01;32.05
66486;BME280;53303;47.476;8.084;2023-02-15T02:00:44;96426.13;;;19.17;32.24
66486;BME280;53303;47.476;8.084;2023-02-15T02:03:10;96407.34;;;19.06;32.15
66486;BME280;53303;47.476;8.084;2023-02-15T02:05:35;96427.47;;;19.21;32.15
66486;BME280;53303;47.476;8.084;2023-02-15T02:08:07;96400.53;;;19.07;31.91
66486;BME280;53303;47.476;8.084;2023-02-15T02:10:37;96425.47;;;19.22;32.03
66486;BME280;53303;47.476;8.084;2023-02-15T02:13:04;96414.59;;;19.18;32.13
66486;BME280;53303;47.476;8.084;2023-02-15T02:21:02;96425.94;;;19.20;32.01
66486;BME280;53303;47.476;8.084;2023-02-15T02:23:43;96419.66;;;19.20;32.19
66486;BME280;53303;47.476;8.084;2023-02-15T02:26:58;96420.31;;;19.15;32.10
66486;BME280;53303;47.476;8.084;2023-02-15T02:35:15;96416.88;;;19.20;32.17
66486;BME280;53303;47.476;8.084;2023-02-15T02:43:21;96408.38;;;19.09;32.12
66486;BME280;53303;47.476;8.084;2023-02-15T02:45:54;96408.97;;;19.13;31.91
66486;BME280;53303;47.476;8.084;2023-02-15T02:48:25;96404.09;;;19.08;32.13
66486;BME280;53303;47.476;8.084;2023-02-15T02:50:53;96418.88;;;19.19;32.00
66486;BME280;53303;47.476;8.084;2023-02-15T02:53:18;96411.72;;;19.13;32.04
66486;BME280;53303;47.476;8.084;2023-02-15T02:55:52;96413.53;;;19.16;31.73
66486;BME280;53303;47.476;8.084;2023-02-15T02:58:20;96418.38;;;19.21;31.95
66486;BME280;53303;47.476;8.084;2023-02-15T03:03:33;96375.00;;;18.97;31.89
66486;BME280;53303;47.476;8.084;2023-02-15T03:06:03;96397.59;;;19.11;31.77
66486;BME280;53303;47.476;8.084;2023-02-15T03:08:36;96416.88;;;19.20;31.96
66486;BME280;53303;47.476;8.084;2023-02-15T03:11:03;96411.34;;;19.20;31.78
66486;BME280;53303;47.476;8.084;2023-02-15T03:13:29;96406.75;;;19.17;31.92
66486;BME280;53303;47.476;8.084;2023-02-15T03:15:58;96398.56;;;19.08;31.67
66486;BME280;53303;47.476;8.084;2023-02-15T03:18:47;96413.31;;;19.19;31.71
66486;BME280;53303;47.476;8.084;2023-02-15T03:21:20;96405.81;;;19.20;31.64
66486;BME280;53303;47.476;8.084;2023-02-15T03:23:55;96391.50;;;19.07;31.77
66486;BME280;53303;47.476;8.084;2023-02-15T03:26:26;96396.34;;;19.12;31.83
66486;BME280;53303;47.476;8.084;2023-02-15T03:28:56;96405.53;;;19.18;31.77
66486;BME280;53303;47.476;8.084;2023-02-15T03:31:26;96394.06;;;19.10;31.90
66486;BME280;53303;47.476;8.084;2023-02-15T03:34:07;96396.06;;;19.10;31.79
66486;BME280;53303;47.476;8.084;2023-02-15T03:36:43;96407.50;;;19.17;31.81
66486;BME280;53303;47.476;8.084;2023-02-15T03:39:30;96407.44;;;19.12;31.77
66486;BME280;53303;47.476;8.084;2023-02-15T03:42:08;96406.66;;;19.11;31.86
66486;BME280;53303;47.476;8.084;2023-02-15T03:45:03;96401.53;;;19.04;31.79
66486;BME280;53303;47.476;8.084;2023-02-15T03:47:33;96399.78;;;19.07;31.79
66486;BME280;53303;47.476;8.084;2023-02-15T03:50:08;96401.53;;;19.04;31.67
66486;BME280;53303;47.476;8.084;2023-02-15T03:52:55;96402.00;;;19.02;31.77
66486;BME280;53303;47.476;8.084;2023-02-15T03:55:29;96399.97;;;19.03;31.69
66486;BME280;53303;47.476;8.084;2023-02-15T03:57:57;96398.16;;;19.00;31.89
66486;BME280;53303;47.476;8.084;2023-02-15T04:00:49;96397.69;;;19.01;31.66
66486;BME280;53303;47.476;8.084;2023-02-15T04:03:42;96413.44;;;19.10;31.73
66486;BME280;53303;47.476;8.084;2023-02-15T04:06:09;96400.84;;;19.09;31.75
66486;BME280;53303;47.476;8.084;2023-02-15T04:08:37;96418.31;;;19.15;31.80
66486;BME280;53303;47.476;8.084;2023-02-15T04:11:21;96405.13;;;19.10;31.80
66486;BME280;53303;47.476;8.084;2023-02-15T04:13:46;96395.41;;;19.00;31.78
66486;BME280;53303;47.476;8.084;2023-02-15T04:16:12;96415.53;;;19.15;31.80
66486;BME280;53303;47.476;8.084;2023-02-15T04:18:43;96414.78;;;19.15;31.71
66486;BME280;53303;47.476;8.084;2023-02-15T04:21:31;96421.53;;;19.14;31.82
66486;BME280;53303;47.476;8.084;2023-02-15T04:24:15;96421.53;;;19.14;31.74
66486;BME280;53303;47.476;8.084;2023-02-15T04:26:59;96423.06;;;19.00;31.88
66486;BME280;53303;47.476;8.084;2023-02-15T04:29:26;96421.44;;;19.08;31.67
66486;BME280;53303;47.476;8.084;2023-02-15T04:31:56;96413.53;;;19.01;31.78
66486;BME280;53303;47.476;8.084;2023-02-15T04:34:21;96427.72;;;19.09;31.79
66486;BME280;53303;47.476;8.084;2023-02-15T04:36:47;96412.88;;;19.06;31.75
66486;BME280;53303;47.476;8.084;2023-02-15T04:39:14;96383.88;;;18.87;32.15
66486;BME280;53303;47.476;8.084;2023-02-15T04:41:39;96397.13;;;18.97;31.67
66486;BME280;53303;47.476;8.084;2023-02-15T04:44:05;96411.34;;;19.05;31.60
66486;BME280;53303;47.476;8.084;2023-02-15T04:46:33;96416.38;;;19.07;31.81
66486;BME280;53303;47.476;8.084;2023-02-15T04:49:00;96402.94;;;18.99;31.72
66486;BME280;53303;47.476;8.084;2023-02-15T04:51:26;96415.44;;;19.10;31.60
66486;BME280;53303;47.476;8.084;2023-02-15T04:53:51;96418.50;;;19.12;31.63
66486;BME280;53303;47.476;8.084;2023-02-15T04:56:20;96418.78;;;19.14;31.55
66486;BME280;53303;47.476;8.084;2023-02-15T04:58:46;96403.69;;;19.00;31.71
66486;BME280;53303;47.476;8.084;2023-02-15T05:01:11;96422.09;;;19.03;31.65
66486;BME280;53303;47.476;8.084;2023-02-15T05:03:41;96414.09;;;19.05;31.45
66486;BME280;53303;47.476;8.084;2023-02-15T05:06:06;96407.25;;;19.00;31.60
66486;BME280;53303;47.476;8.084;2023-02-15T05:08:32;96405.72;;;18.99;31.31
66486;BME280;53303;47.476;8.084;2023-02-15T05:11:00;96411.81;;;19.03;31.06
66486;BME280;53303;47.476;8.084;2023-02-15T05:13:27;96419.16;;;19.07;31.44
66486;BME280;53303;47.476;8.084;2023-02-15T05:15:53;96420.22;;;19.09;31.10
66486;BME280;53303;47.476;8.084;2023-02-15T05:18:22;96394.84;;;18.96;31.04
66486;BME280;53303;47.476;8.084;2023-02-15T05:20:50;96414.97;;;19.11;31.13
66486;BME280;53303;47.476;8.084;2023-02-15T05:23:18;96391.78;;;18.94;31.40
66486;BME280;53303;47.476;8.084;2023-02-15T05:25:50;96408.75;;;19.01;31.14
66486;BME280;53303;47.476;8.084;2023-02-15T05:28:36;96426.03;;;19.11;31.14
66486;BME280;53303;47.476;8.084;2023-02-15T05:31:16;96410.00;;;19.00;31.40
66486;BME280;53303;47.476;8.084;2023-02-15T05:33:46;96420.22;;;19.09;31.29
66486;BME280;53303;47.476;8.084;2023-02-15T05:36:14;96424.97;;;19.09;31.35
66486;BME280;53303;47.476;8.084;2023-02-15T05:38:45;96405.22;;;19.01;31.39
66486;BME280;53303;47.476;8.084;2023-02-15T05:41:11;96412.13;;;19.06;31.36
66486;BME280;53303;47.476;8.084;2023-02-15T05:43:39;96416.56;;;19.03;31.42
66486;BME280;53303;47.476;8.084;2023-02-15T05:46:07;96422.19;;;19.09;31.36
66486;BME280;53303;47.476;8.084;2023-02-15T05:48:33;96431.84;;;19.13;31.27
66486;BME280;53303;47.476;8.084;2023-02-15T05:53:31;96418.69;;;19.08;31.65
66486;BME280;53303;47.476;8.084;2023-02-15T05:56:00;96424.69;;;19.07;31.34
66486;BME280;53303;47.476;8.084;2023-02-15T05:58:26;96433.34;;;19.14;31.41
66486;BME280;53303;47.476;8.084;2023-02-15T06:00:52;96386.50;;;18.81;31.37
66486;BME280;53303;47.476;8.084;2023-02-15T06:03:18;96420.69;;;19.08;31.34
66486;BME280;53303;47.476;8.084;2023-02-15T06:05:43;96430.50;;;19.09;31.36
66486;BME280;53303;47.476;8.084;2023-02-15T06:08:09;96434.63;;;19.13;31.51
66486;BME280;53303;47.476;8.084;2023-02-15T06:10:39;96416.78;;;18.99;31.37
66486;BME280;53303;47.476;8.084;2023-02-15T06:13:05;96440.63;;;19.12;31.41
66486;BME280;53303;47.476;8.084;2023-02-15T06:15:31;96440.91;;;19.14;31.48
66486;BME280;53303;47.476;8.084;2023-02-15T06:17:59;96438.13;;;19.14;31.76
66486;BME280;53303;47.476;8.084;2023-02-15T06:20:24;96412.19;;;18.96;31.46
66486;BME280;53303;47.476;8.084;2023-02-15T06:22:53;96431.56;;;19.11;31.36
66486;BME280;53303;47.476;8.084;2023-02-15T06:25:18;96422.09;;;19.03;31.48
66486;BME280;53303;47.476;8.084;2023-02-15T06:27:43;96424.31;;;18.99;31.46
66486;BME280;53303;47.476;8.084;2023-02-15T06:30:11;96429.94;;;19.05;31.41
66486;BME280;53303;47.476;8.084;2023-02-15T06:32:37;96419.81;;;19.01;31.50
66486;BME280;53303;47.476;8.084;2023-02-15T06:35:05;96441.09;;;19.10;31.39
66486;BME280;53303;47.476;8.084;2023-02-15T06:37:33;96438.81;;;19.09;31.40
66486;BME280;53303;47.476;8.084;2023-02-15T06:40:01;96441.56;;;19.09;31.29
66486;BME280;53303;47.476;8.084;2023-02-15T06:42:31;96442.53;;;19.06;31.37
66486;BME280;53303;47.476;8.084;2023-02-15T06:44:59;96421.16;;;18.91;31.53
66486;BME280;53303;47.476;8.084;2023-02-15T06:47:25;96451.69;;;19.12;31.46
66486;BME280;53303;47.476;8.084;2023-02-15T06:49:50;96458.25;;;19.14;31.39
66486;BME280;53303;47.476;8.084;2023-02-15T06:52:18;96455.69;;;19.11;31.38
66486;BME280;53303;47.476;8.084;2023-02-15T06:54:45;96441.56;;;19.09;31.43
66486;BME280;53303;47.476;8.084;2023-02-15T06:57:13;96434.03;;;18.94;31.14
66486;BME280;53303;47.476;8.084;2023-02-15T06:59:38;96440.25;;;19.04;31.36
66486;BME280;53303;47.476;8.084;2023-02-15T07:02:04;96464.75;;;19.11;31.53
66486;BME280;53303;47.476;8.084;2023-02-15T07:04:29;96432.88;;;19.01;31.43
66486;BME280;53303;47.476;8.084;2023-02-15T07:06:55;96437.47;;;19.04;31.15
66486;BME280;53303;47.476;8.084;2023-02-15T07:09:21;96442.22;;;19.03;31.41
66486;BME280;53303;47.476;8.084;2023-02-15T07:11:46;96452.72;;;19.14;31.32
66486;BME280;53303;47.476;8.084;2023-02-15T07:14:32;96443.00;;;19.04;31.22
66486;BME280;53303;47.476;8.084;2023-02-15T07:16:58;96422.59;;;18.87;31.28
66486;BME280;53303;47.476;8.084;2023-02-15T07:19:26;96446.25;;;19.02;31.23
66486;BME280;53303;47.476;8.084;2023-02-15T07:21:51;96453.09;;;19.07;31.34
66486;BME280;53303;47.476;8.084;2023-02-15T07:24:16;96466.75;;;19.11;31.25
66486;BME280;53303;47.476;8.084;2023-02-15T07:26:42;96458.44;;;19.11;31.22
66486;BME280;53303;47.476;8.084;2023-02-15T07:29:10;96385.81;;;18.56;31.33
66486;BME280;53303;47.476;8.084;2023-02-15T07:31:38;96453.88;;;19.08;31.38
66486;BME280;53303;47.476;8.084;2023-02-15T07:34:05;96460.28;;;19.14;31.09
66486;BME280;53303;47.476;8.084;2023-02-15T07:36:31;96433.84;;;18.98;31.26
66486;BME280;53303;47.476;8.084;2023-02-15T07:38:59;96450.53;;;19.03;31.22
66486;BME280;53303;47.476;8.084;2023-02-15T07:41:25;96463.03;;;19.14;31.06
66486;BME280;53303;47.476;8.084;2023-02-15T07:43:50;96458.75;;;19.13;31.19
66486;BME280;53303;47.476;8.084;2023-02-15T07:46:18;96458.75;;;19.13;31.15
66486;BME280;53303;47.476;8.084;2023-02-15T07:48:45;96456.75;;;19.13;31.20
66486;BME280;53303;47.476;8.084;2023-02-15T07:51:11;96451.41;;;19.10;30.95
66486;BME280;53303;47.476;8.084;2023-02-15T07:53:40;96462.56;;;19.15;31.02
66486;BME280;53303;47.476;8.084;2023-02-15T07:56:11;96452.72;;;19.14;31.01
66486;BME280;53303;47.476;8.084;2023-02-15T07:58:37;96453.22;;;19.13;31.14
66486;BME280;53303;47.476;8.084;2023-02-15T08:01:34;96451.41;;;19.10;31.07
66486;BME280;53303;47.476;8.084;2023-02-15T08:04:01;96452.44;;;19.12;31.15
66486;BME280;53303;47.476;8.084;2023-02-15T08:06:29;96453.22;;;19.13;31.14
66486;BME280;53303;47.476;8.084;2023-02-15T08:08:55;96449.88;;;19.09;31.15
66486;BME280;53303;47.476;8.084;2023-02-15T08:11:26;96450.47;;;19.13;30.96
66486;BME280;53303;47.476;8.084;2023-02-15T08:14:09;96445.13;;;19.09;31.15
66486;BME280;53303;47.476;8.084;2023-02-15T08:16:46;96443.38;;;19.12;31.06
66486;BME280;53303;47.476;8.084;2023-02-15T08:19:13;96451.22;;;19.13;30.96
66486;BME280;53303;47.476;8.084;2023-02-15T08:21:41;96452.44;;;19.12;30.91
66486;BME280;53303;47.476;8.084;2023-02-15T08:24:09;96451.22;;;19.13;30.94
66486;BME280;53303;47.476;8.084;2023-02-15T08:26:38;96450.47;;;19.13;31.00
66486;BME280;53303;47.476;8.084;2023-02-15T08:29:04;96441.84;;;19.11;31.15
66486;BME280;53303;47.476;8.084;2023-02-15T08:31:30;96446.44;;;19.14;30.88
66486;BME280;53303;47.476;8.084;2023-02-15T08:33:58;96437.66;;;19.15;30.87
66486;BME280;53303;47.476;8.084;2023-02-15T08:36:25;96441.19;;;19.16;30.92
66486;BME280;53303;47.476;8.084;2023-02-15T08:38:52;96436.91;;;19.15;30.92
66486;BME280;53303;47.476;8.084;2023-02-15T08:41:26;96424.78;;;19.12;30.96
66486;BME280;53303;47.476;8.084;2023-02-15T08:43:58;96432.78;;;19.10;31.04
66486;BME280;53303;47.476;8.084;2023-02-15T08:46:29;96424.03;;;19.12;30.82
66486;BME280;53303;47.476;8.084;2023-02-15T08:48:56;96434.91;;;19.15;30.84
66486;BME280;53303;47.476;8.084;2023-02-15T08:51:34;96432.59;;;19.14;30.71
66486;BME280;53303;47.476;8.084;2023-02-15T08:54:02;96432.88;;;19.16;30.82
66486;BME280;53303;47.476;8.084;2023-02-15T08:56:32;96428.63;;;19.15;30.90
66486;BME280;53303;47.476;8.084;2023-02-15T08:58:58;96428.13;;;19.16;30.80
66486;BME280;53303;47.476;8.084;2023-02-15T09:01:26;96427.06;;;19.14;30.83
66486;BME280;53303;47.476;8.084;2023-02-15T09:03:56;96427.34;;;19.16;30.85
66486;BME280;53303;47.476;8.084;2023-02-15T09:06:22;96423.34;;;19.17;30.89
66486;BME280;53303;47.476;8.084;2023-02-15T09:08:48;96421.25;;;19.12;30.91
66486;BME280;53303;47.476;8.084;2023-02-15T09:11:15;96423.34;;;19.17;30.88
66486;BME280;53303;47.476;8.084;2023-02-15T09:13:59;96419.25;;;19.12;30.78
66486;BME280;53303;47.476;8.084;2023-02-15T09:16:28;96420.31;;;19.15;30.74
66486;BME280;53303;47.476;8.084;2023-02-15T09:18:55;96415.25;;;19.13;30.78
66486;BME280;53303;47.476;8.084;2023-02-15T09:21:25;96409.72;;;19.13;30.78
66486;BME280;53303;47.476;8.084;2023-02-15T09:23:54;96420.88;;;19.19;30.75
66486;BME280;53303;47.476;8.084;2023-02-15T09:26:24;96412.75;;;19.15;30.79
66486;BME280;53303;47.476;8.084;2023-02-15T09:28:54;96416.88;;;19.20;30.71
66486;BME280;53303;47.476;8.084;2023-02-15T09:31:24;96411.34;;;19.20;30.88
66486;BME280;53303;47.476;8.084;2023-02-15T09:33:50;96412.84;;;19.21;30.75
66486;BME280;53303;47.476;8.084;2023-02-15T09:36:21;96402.84;;;19.09;30.90
66486;BME280;53303;47.476;8.084;2023-02-15T09:38:52;96396.91;;;19.16;30.82
66486;BME280;53303;47.476;8.084;2023-02-15T09:50:35;96406.00;;;19.16;30.98
66486;BME280;53303;47.476;8.084;2023-02-15T09:56:12;96397.72;;;19.16;30.74
66486;BME280;53303;47.476;8.084;2023-02-15T09:58:59;96403.03;;;19.20;30.75
66486;BME280;53303;47.476;8.084;2023-02-15T10:21:19;96386.84;;;19.13;31.07
66486;BME280;53303;47.476;8.084;2023-02-15T10:29:08;96389.50;;;19.22;30.91
66486;BME280;53303;47.476;8.084;2023-02-15T10:31:57;96384.72;;;19.23;30.85
66486;BME280;53303;47.476;8.084;2023-02-15T10:35:04;96386.44;;;19.20;30.96
66486;BME280;53303;47.476;8.084;2023-02-15T10:43:43;96389.97;;;19.20;31.14
66486;BME280;53303;47.476;8.084;2023-02-15T10:49:26;96380.44;;;19.21;30.91
66486;BME280;53303;47.476;8.084;2023-02-15T10:54:39;96377.47;;;19.25;31.02
66486;BME280;53303;47.476;8.084;2023-02-15T10:57:26;96373.16;;;19.24;31.10
66486;BME280;53303;47.476;8.084;2023-02-15T11:07:59;96352.06;;;19.27;31.20
66486;BME280;53303;47.476;8.084;2023-02-15T11:10:51;96354.84;;;19.27;31.08
66486;BME280;53303;47.476;8.084;2023-02-15T11:13:19;96349.88;;;19.31;31.09
66486;BME280;53303;47.476;8.084;2023-02-15T11:15:47;96348.63;;;19.32;31.27
66486;BME280;53303;47.476;8.084;2023-02-15T11:18:16;96343.88;;;19.32;31.05
66486;BME280;53303;47.476;8.084;2023-02-15T11:21:01;96340.59;;;19.34;31.09
66486;BME280;53303;47.476;8.084;2023-02-15T11:23:27;96337.84;;;19.34;31.27
66486;BME280;53303;47.476;8.084;2023-02-15T11:25:58;96337.34;;;19.35;30.98
66486;BME280;53303;47.476;8.084;2023-02-15T11:28:41;96334.31;;;19.33;31.14
66486;BME280;53303;47.476;8.084;2023-02-15T11:31:16;96325.06;;;19.36;31.18
66486;BME280;53303;47.476;8.084;2023-02-15T11:33:43;96321.06;;;19.23;31.30
66486;BME280;53303;47.476;8.084;2023-02-15T11:36:24;96323.16;;;19.28;31.25
66486;BME280;53303;47.476;8.084;2023-02-15T11:38:59;96318.19;;;19.32;31.26
66486;BME280;53303;47.476;8.084;2023-02-15T11:41:31;96304.34;;;19.32;31.34
66486;BME280;53303;47.476;8.084;2023-02-15T11:46:31;96308.44;;;19.36;31.30
66486;BME280;53303;47.476;8.084;2023-02-15T11:48:56;96308.44;;;19.36;31.36
66486;BME280;53303;47.476;8.084;2023-02-15T11:51:23;96312.53;;;19.41;31.11
66486;BME280;53303;47.476;8.084;2023-02-15T11:53:52;96296.72;;;19.42;31.24
66486;BME280;53303;47.476;8.084;2023-02-15T11:56:21;96302.50;;;19.44;31.26
66486;BME280;53303;47.476;8.084;2023-02-15T12:01:41;96292.88;;;19.39;31.17
66486;BME280;53303;47.476;8.084;2023-02-15T12:04:31;96296.44;;;19.39;31.42
66486;BME280;53303;47.476;8.084;2023-02-15T12:09:50;96295.66;;;19.39;31.35
66486;BME280;53303;47.476;8.084;2023-02-15T12:14:48;96285.22;;;19.49;31.22
66486;BME280;53303;47.476;8.084;2023-02-15T12:17:15;96268.34;;;19.47;31.26
66486;BME280;53303;47.476;8.084;2023-02-15T12:19:41;96270.91;;;19.50;31.44
66486;BME280;53303;47.476;8.084;2023-02-15T12:22:19;96268.91;;;19.51;31.51
66486;BME280;53303;47.476;8.084;2023-02-15T12:24:49;96256.59;;;19.52;31.43
66486;BME280;53303;47.476;8.084;2023-02-15T12:27:19;96261.91;;;19.55;31.24
66486;BME280;53303;47.476;8.084;2023-02-15T12:29:50;96259.44;;;19.57;31.23
66486;BME280;53303;47.476;8.084;2023-02-15T12:35:33;96243.50;;;19.52;31.36
66486;BME280;53303;47.476;8.084;2023-02-15T12:38:19;96251.41;;;19.59;31.31
66486;BME280;53303;47.476;8.084;2023-02-15T12:41:11;96245.84;;;19.59;31.37
66486;BME280;53303;47.476;8.084;2023-02-15T12:43:47;96243.34;;;19.62;31.21
66486;BME280;53303;47.476;8.084;2023-02-15T12:48:44;96232.06;;;19.65;31.28
66486;BME280;53303;47.476;8.084;2023-02-15T12:51:14;96233.66;;;19.72;31.26
66486;BME280;53303;47.476;8.084;2023-02-15T12:53:42;96216.69;;;19.64;31.31
66486;BME280;53303;47.476;8.084;2023-02-15T12:56:10;96231.47;;;19.76;31.29
66486;BME280;53303;47.476;8.084;2023-02-15T12:58:40;96219.91;;;19.77;31.30
66486;BME280;53303;47.476;8.084;2023-02-15T13:06:30;96227.03;;;19.84;31.24
66486;BME280;53303;47.476;8.084;2023-02-15T13:09:20;96214.84;;;19.76;31.37
66486;BME280;53303;47.476;8.084;2023-02-15T13:11:50;96219.97;;;19.83;31.38
66486;BME280;53303;47.476;8.084;2023-02-15T13:14:19;96221.09;;;19.91;31.37
66486;BME280;53303;47.476;8.084;2023-02-15T13:16:49;96225.63;;;19.94;31.34
66486;BME280;53303;47.476;8.084;2023-02-15T13:19:39;96220.59;;;19.93;31.27
66486;BME280;53303;47.476;8.084;2023-02-15T13:22:33;96218.56;;;19.93;31.16
66486;BME280;53303;47.476;8.084;2023-02-15T13:25:08;96215.59;;;19.97;31.19
66486;BME280;53303;47.476;8.084;2023-02-15T13:27:44;96220.44;;;20.02;31.26
66486;BME280;53303;47.476;8.084;2023-02-15T13:32:44;96206.09;;;20.04;31.14
66486;BME280;53303;47.476;8.084;2023-02-15T13:35:15;96211.97;;;20.11;31.19
66486;BME280;53303;47.476;8.084;2023-02-15T13:37:46;96205.44;;;20.14;31.26
66486;BME280;53303;47.476;8.084;2023-02-15T13:43:00;96203.69;;;20.17;31.11
66486;BME280;53303;47.476;8.084;2023-02-15T13:51:21;96197.97;;;20.26;31.31
66486;BME280;53303;47.476;8.084;2023-02-15T13:59:37;96189.00;;;20.37;31.08
66486;BME280;53303;47.476;8.084;2023-02-15T14:04:47;96187.06;;;20.43;31.06
66486;BME280;53303;47.476;8.084;2023-02-15T14:08:00;96157.34;;;20.17;31.18
66486;BME280;53303;47.476;8.084;2023-02-15T14:10:38;96194.66;;;20.48;30.94
66486;BME280;53303;47.476;8.084;2023-02-15T14:16:11;96173.91;;;20.38;31.13
66486;BME280;53303;47.476;8.084;2023-02-15T14:29:54;96186.72;;;20.62;31.14
66486;BME280;53303;47.476;8.084;2023-02-15T14:34:57;96189.66;;;20.52;31.39
66486;BME280;53303;47.476;8.084;2023-02-15T14:40:17;96188.28;;;20.68;30.76
66486;BME280;53303;47.476;8.084;2023-02-15T14:43:14;96191.81;;;20.69;31.13
66486;BME280;53303;47.476;8.084;2023-02-15T14:48:31;96174.38;;;20.63;31.09
66486;BME280;53303;47.476;8.084;2023-02-15T14:50:58;96168.59;;;20.66;31.56
66486;BME280;53303;47.476;8.084;2023-02-15T14:58:55;96181.97;;;20.68;31.52
66486;BME280;53303;47.476;8.084;2023-02-15T15:01:31;96185.81;;;20.76;31.55
66486;BME280;53303;47.476;8.084;2023-02-15T15:04:13;96165.00;;;20.60;31.43
66486;BME280;53303;47.476;8.084;2023-02-15T15:07:13;96190.13;;;20.77;31.54
66486;BME280;53303;47.476;8.084;2023-02-15T15:09:43;96186.84;;;20.79;31.72
66486;BME280;53303;47.476;8.084;2023-02-15T15:14:52;96180.00;;;20.74;31.99
66486;BME280;53303;47.476;8.084;2023-02-15T15:17:55;96177.97;;;20.75;32.00
66486;BME280;53303;47.476;8.084;2023-02-15T15:25:56;96179.28;;;20.79;31.93
66486;BME280;53303;47.476;8.084;2023-02-15T15:51:04;96191.28;;;20.65;32.72
66486;BME280;53303;47.476;8.084;2023-02-15T15:53:38;96194.81;;;20.65;32.74
66486;BME280;53303;47.476;8.084;2023-02-15T15:56:11;96194.00;;;20.59;32.60
66486;BME280;53303;47.476;8.084;2023-02-15T15:58:46;96188.13;;;20.51;32.84
66486;BME280;53303;47.476;8.084;2023-02-15T16:01:16;96182.03;;;20.47;32.94
66486;BME280;53303;47.476;8.084;2023-02-15T16:03:51;96190.88;;;20.51;33.08
66486;BME280;53303;47.476;8.084;2023-02-15T16:06:32;96194.41;;;20.46;32.92
66486;BME280;53303;47.476;8.084;2023-02-15T16:11:54;96154.00;;;20.08;33.12
66486;BME280;53303;47.476;8.084;2023-02-15T16:14:30;96199.13;;;20.40;33.06
66486;BME280;53303;47.476;8.084;2023-02-15T16:17:00;96208.69;;;20.39;33.16
66486;BME280;53303;47.476;8.084;2023-02-15T16:19:29;96190.16;;;20.25;33.32
66486;BME280;53303;47.476;8.084;2023-02-15T16:21:58;96214.44;;;20.35;33.16
66486;BME280;53303;47.476;8.084;2023-02-15T16:29:41;96201.97;;;20.20;33.35